createdAt,value
2022-08-17T00:00:51.776Z,50.38
2022-08-17T00:03:20.282Z,39.08
2022-08-17T00:05:50.570Z,46.15
2022-08-17T00:08:19.508Z,43.35
2022-08-17T00:10:46.607Z,41.33
2022-08-17T00:13:15.851Z,50.38
2022-08-17T00:15:42.173Z,51.58
2022-08-17T00:19:00.906Z,40.63
2022-08-17T00:20:55.449Z,41.72
2022-08-17T00:23:22.523Z,41.75
2022-08-17T00:25:48.946Z,53.25
2022-08-17T00:28:16.193Z,29.90
2022-08-17T00:30:51.025Z,56.30
2022-08-17T00:33:22.140Z,32.40
2022-08-17T00:35:48.515Z,50.95
2022-08-17T00:38:14.950Z,50.58
2022-08-17T00:40:45.897Z,51.13
2022-08-17T00:43:18.917Z,49.78
2022-08-17T00:45:45.677Z,40.90
2022-08-17T00:48:26.150Z,44.05
2022-08-17T00:50:56.905Z,53.53
2022-08-17T00:53:23.855Z,48.00
2022-08-17T00:55:50.345Z,50.30
2022-08-17T00:58:16.696Z,45.42
2022-08-17T01:01:02.088Z,47.35
2022-08-17T01:03:29.568Z,51.70
2022-08-17T01:05:59.706Z,43.85
2022-08-17T01:08:27.925Z,49.63
2022-08-17T01:10:58.691Z,54.33
2022-08-17T01:13:29.076Z,48.78
2022-08-17T01:16:00.607Z,52.25
2022-08-17T01:18:27.288Z,48.75
2022-08-17T01:20:55.032Z,48.53
2022-08-17T01:23:23.547Z,48.30
2022-08-17T01:25:51.297Z,46.22
2022-08-17T01:28:52.581Z,48.63
2022-08-17T01:31:05.874Z,44.55
2022-08-17T01:33:32.380Z,36.10
2022-08-17T01:36:00.554Z,36.85
2022-08-17T01:38:31.529Z,39.83
2022-08-17T01:41:03.260Z,26.42
2022-08-17T01:43:41.485Z,24.17
2022-08-17T01:46:08.001Z,37.63
2022-08-17T01:48:35.356Z,20.23
2022-08-17T01:51:02.204Z,15.02
2022-08-17T01:53:37.850Z,29.48
2022-08-17T01:56:07.036Z,27.85
2022-08-17T01:58:34.457Z,19.40
2022-08-17T02:01:01.658Z,18.05
2022-08-17T02:03:28.742Z,10.85
2022-08-17T02:05:55.312Z,14.60
2022-08-17T02:08:37.024Z,17.35
2022-08-17T02:11:11.232Z,25.08
2022-08-17T02:13:38.141Z,18.30
2022-08-17T02:16:04.503Z,27.35
2022-08-17T02:18:30.838Z,16.17
2022-08-17T02:20:57.235Z,32.80
2022-08-17T02:23:24.663Z,29.73
2022-08-17T02:25:51.167Z,23.38
2022-08-17T02:28:18.357Z,21.10
2022-08-17T02:31:02.202Z,24.17
2022-08-17T02:33:41.555Z,22.95
2022-08-17T02:36:09.137Z,17.73
2022-08-17T02:38:36.395Z,20.70
2022-08-17T02:41:03.197Z,14.82
2022-08-17T02:43:29.823Z,14.45
2022-08-17T02:45:56.222Z,11.95
2022-08-17T02:48:30.661Z,10.13
2022-08-17T02:50:58.702Z,10.05
2022-08-17T02:53:25.742Z,9.50
2022-08-17T02:55:52.549Z,13.63
2022-08-17T02:58:34.351Z,9.48
2022-08-17T03:01:03.266Z,10.50
2022-08-17T03:03:29.677Z,10.10
2022-08-17T03:05:56.260Z,12.35
2022-08-17T03:08:23.339Z,8.57
2022-08-17T03:10:50.477Z,8.98
2022-08-17T03:13:17.410Z,7.40
2022-08-17T03:15:47.640Z,9.05
2022-08-17T03:18:18.910Z,5.93
2022-08-17T03:20:51.264Z,8.73
2022-08-17T03:23:17.678Z,7.65
2022-08-17T03:25:45.934Z,8.63
2022-08-17T03:28:12.634Z,12.27
2022-08-17T03:30:39.968Z,6.93
2022-08-17T03:33:07.493Z,7.30
2022-08-17T03:35:34.892Z,4.93
2022-08-17T03:38:01.595Z,5.32
2022-08-17T03:40:36.970Z,10.13
2022-08-17T03:43:15.451Z,7.95
2022-08-17T03:46:01.275Z,6.25
2022-08-17T03:48:46.323Z,4.55
2022-08-17T03:51:42.212Z,5.03
2022-08-17T03:54:27.847Z,5.95
2022-08-17T03:56:57.037Z,4.10
2022-08-17T03:59:23.569Z,4.40
2022-08-17T04:01:53.481Z,4.53
2022-08-17T04:04:20.881Z,5.75
2022-08-17T04:06:54.236Z,5.05
2022-08-17T04:09:20.601Z,5.75
2022-08-17T04:11:47.028Z,4.43
2022-08-17T04:14:13.492Z,7.55
2022-08-17T04:16:40.207Z,3.75
2022-08-17T04:19:06.769Z,7.22
2022-08-17T04:21:34.274Z,4.57
2022-08-17T04:24:00.809Z,9.05
2022-08-17T04:26:53.895Z,9.45
2022-08-17T04:29:14.737Z,10.38
2022-08-17T04:31:41.100Z,7.90
2022-08-17T04:34:07.632Z,9.25
2022-08-17T04:36:34.020Z,7.90
2022-08-17T04:39:00.502Z,8.40
2022-08-17T04:41:45.635Z,8.15
2022-08-17T04:44:12.388Z,4.23
2022-08-17T04:46:38.873Z,9.73
2022-08-17T04:49:07.042Z,6.97
2022-08-17T04:51:38.740Z,4.57
2022-08-17T04:54:17.873Z,8.13
2022-08-17T04:56:44.653Z,8.73
2022-08-17T04:59:16.113Z,8.05
2022-08-17T05:01:43.986Z,8.52
2022-08-17T05:04:34.603Z,9.23
2022-08-17T05:06:58.673Z,5.95
2022-08-17T05:09:25.048Z,7.35
2022-08-17T05:11:51.450Z,4.43
2022-08-17T05:14:17.834Z,7.82
2022-08-17T05:16:45.782Z,10.77
2022-08-17T05:19:12.111Z,6.80
2022-08-17T05:21:38.497Z,11.18
2022-08-17T05:24:05.978Z,14.98
2022-08-17T05:26:51.260Z,9.57
2022-08-17T05:29:18.782Z,13.85
2022-08-17T05:31:45.133Z,9.82
2022-08-17T05:34:11.599Z,14.82
2022-08-17T05:36:43.994Z,9.70
2022-08-17T05:39:16.931Z,10.55
2022-08-17T05:41:44.213Z,10.38
2022-08-17T05:44:10.588Z,14.85
2022-08-17T05:46:39.826Z,14.02
2022-08-17T05:49:11.140Z,15.10
2022-08-17T05:51:40.262Z,11.80
2022-08-17T05:54:23.847Z,12.50
2022-08-17T05:56:50.159Z,11.77
2022-08-17T05:59:22.644Z,12.52
2022-08-17T06:02:07.445Z,15.40
2022-08-17T06:04:46.992Z,13.63
2022-08-17T06:07:39.603Z,10.93
2022-08-17T06:10:12.466Z,11.85
2022-08-17T06:12:43.697Z,13.27
2022-08-17T06:15:26.340Z,13.80
2022-08-17T06:17:55.065Z,13.63
2022-08-17T06:20:22.328Z,11.45
2022-08-17T06:22:50.830Z,14.15
2022-08-17T06:25:18.832Z,16.85
2022-08-17T06:27:56.575Z,6.72
2022-08-17T06:30:27.543Z,12.70
2022-08-17T06:32:55.674Z,12.88
2022-08-17T06:35:32.011Z,9.85
2022-08-17T06:38:09.728Z,18.33
2022-08-17T06:40:58.888Z,17.92
2022-08-17T06:43:28.034Z,13.23
2022-08-17T06:46:01.697Z,14.40
2022-08-17T06:48:50.021Z,12.80
2022-08-17T06:53:48.294Z,15.60
2022-08-17T06:56:21.932Z,16.65
2022-08-17T06:58:49.508Z,18.70
2022-08-17T07:01:19.387Z,12.05
2022-08-17T07:03:55.458Z,13.30
2022-08-17T07:06:27.955Z,13.93
2022-08-17T07:09:21.541Z,11.20
2022-08-17T07:11:50.874Z,11.68
2022-08-17T07:14:32.424Z,9.32
2022-08-17T07:17:01.290Z,8.98
2022-08-17T07:19:31.519Z,11.55
2022-08-17T07:22:07.387Z,8.00
2022-08-17T07:24:45.071Z,7.43
2022-08-17T07:27:31.309Z,11.55
2022-08-17T07:30:00.915Z,8.13
2022-08-17T07:32:31.755Z,7.15
2022-08-17T07:35:05.101Z,13.23
2022-08-17T07:37:33.304Z,12.63
2022-08-17T07:40:16.309Z,11.40
2022-08-17T07:42:45.268Z,8.60
2022-08-17T07:45:34.248Z,10.68
2022-08-17T07:48:19.113Z,10.00
2022-08-17T07:50:49.700Z,11.43
2022-08-17T07:53:18.610Z,12.93
2022-08-17T07:55:45.421Z,14.48
2022-08-17T07:58:19.373Z,9.68
2022-08-17T08:00:46.537Z,10.32
2022-08-17T08:03:15.560Z,11.68
2022-08-17T08:05:51.000Z,9.55
2022-08-17T08:08:28.245Z,16.70
2022-08-17T08:11:00.202Z,10.43
2022-08-17T08:13:28.719Z,11.32
2022-08-17T08:16:19.893Z,11.93
2022-08-17T08:18:55.915Z,7.72
2022-08-17T08:21:29.149Z,7.10
2022-08-17T08:23:59.594Z,10.50
2022-08-17T08:26:32.419Z,8.10
2022-08-17T08:29:00.441Z,7.45
2022-08-17T08:31:26.759Z,8.57
2022-08-17T08:34:53.395Z,7.63
2022-08-17T08:37:17.135Z,8.70
2022-08-17T08:39:57.518Z,9.02
2022-08-17T08:42:28.682Z,6.18
2022-08-17T08:45:10.311Z,7.82
2022-08-17T08:47:36.650Z,7.10
2022-08-17T08:50:09.070Z,7.22
2022-08-17T08:53:01.295Z,7.88
2022-08-17T08:55:37.627Z,8.60
2022-08-17T08:58:32.288Z,6.13
2022-08-17T09:01:08.781Z,4.63
2022-08-17T09:04:11.800Z,12.18
2022-08-17T09:06:46.781Z,7.80
2022-08-17T09:09:13.147Z,8.45
2022-08-17T09:12:03.460Z,6.82
2022-08-17T09:14:46.411Z,8.30
2022-08-17T09:17:16.516Z,9.40
2022-08-17T09:19:48.301Z,6.50
2022-08-17T09:22:33.291Z,7.65
2022-08-17T09:25:18.327Z,8.10
2022-08-17T09:27:53.669Z,8.90
2022-08-17T09:30:20.548Z,7.22
2022-08-17T09:32:55.087Z,5.60
2022-08-17T09:35:23.856Z,4.07
2022-08-17T09:37:50.235Z,6.72
2022-08-17T09:40:22.681Z,7.13
2022-08-17T09:42:55.150Z,8.98
2022-08-17T09:45:24.423Z,8.50
2022-08-17T09:48:11.040Z,9.25
2022-08-17T09:51:03.894Z,9.35
2022-08-17T09:53:32.254Z,8.25
2022-08-17T09:55:58.602Z,6.95
2022-08-17T09:58:56.346Z,8.27
2022-08-17T10:01:31.751Z,5.75
2022-08-17T10:04:10.719Z,4.65
2022-08-17T10:06:47.174Z,5.05
2022-08-17T10:09:22.176Z,6.32
2022-08-17T10:12:10.929Z,5.32
2022-08-17T10:14:46.339Z,5.47
2022-08-17T10:17:20.436Z,5.50
2022-08-17T10:19:52.494Z,5.57
2022-08-17T10:22:44.471Z,6.10
2022-08-17T10:25:53.679Z,7.35
2022-08-17T10:28:25.870Z,6.70
2022-08-17T10:31:16.791Z,6.28
2022-08-17T10:33:53.378Z,5.97
2022-08-17T10:36:26.282Z,3.95
2022-08-17T10:39:25.157Z,5.30
2022-08-17T10:41:54.010Z,7.13
2022-08-17T10:44:38.454Z,4.22
2022-08-17T10:47:15.413Z,5.53
2022-08-17T10:49:49.456Z,8.45
2022-08-17T10:52:27.864Z,8.48
2022-08-17T10:54:58.440Z,4.70
2022-08-17T10:57:34.339Z,4.53
2022-08-17T11:00:00.724Z,7.60
2022-08-17T11:02:41.295Z,7.40
2022-08-17T11:05:20.615Z,7.25
2022-08-17T11:08:07.241Z,7.13
2022-08-17T11:10:49.905Z,9.65
2022-08-17T11:13:29.626Z,8.50
2022-08-17T11:15:59.115Z,7.07
2022-08-17T11:18:45.587Z,10.70
2022-08-17T11:21:30.577Z,9.77
2022-08-17T11:24:10.360Z,5.80
2022-08-17T11:26:38.495Z,6.05
2022-08-17T11:29:16.805Z,7.28
2022-08-17T11:31:46.529Z,9.50
2022-08-17T11:34:23.078Z,9.73
2022-08-17T11:37:02.056Z,10.13
2022-08-17T11:39:31.467Z,11.15
2022-08-17T11:41:57.815Z,11.25
2022-08-17T11:44:24.173Z,14.20
2022-08-17T11:47:13.113Z,12.38
2022-08-17T11:49:58.162Z,13.75
2022-08-17T11:53:00.386Z,17.60
2022-08-17T11:55:36.403Z,15.15
2022-08-17T11:58:24.694Z,13.00
2022-08-17T12:00:55.625Z,11.30
2022-08-17T12:03:26.361Z,16.88
2022-08-17T12:06:02.366Z,9.05
2022-08-17T12:08:32.600Z,15.85
2022-08-17T12:11:02.011Z,14.18
2022-08-17T12:13:30.534Z,13.63
2022-08-17T12:16:05.270Z,8.05
2022-08-17T12:18:35.451Z,13.55
2022-08-17T12:21:15.439Z,16.77
2022-08-17T12:24:06.775Z,13.05
2022-08-17T12:26:34.530Z,15.65
2022-08-17T12:29:02.124Z,14.10
2022-08-17T12:31:36.457Z,13.25
2022-08-17T12:34:04.633Z,12.50
2022-08-17T12:36:32.560Z,8.13
2022-08-17T12:39:12.860Z,15.25
2022-08-17T12:41:41.463Z,11.20
2022-08-17T12:44:11.193Z,9.02
2022-08-17T12:46:53.136Z,8.15
2022-08-17T12:49:26.409Z,7.80
2022-08-17T12:51:57.185Z,9.18
2022-08-17T12:54:31.382Z,11.55
2022-08-17T12:57:02.041Z,13.52
2022-08-17T12:59:30.082Z,11.18
2022-08-17T13:01:57.087Z,10.35
2022-08-17T13:04:24.088Z,9.48
2022-08-17T13:06:59.816Z,13.50
2022-08-17T13:09:35.783Z,10.68
2022-08-17T13:12:07.391Z,10.80
2022-08-17T13:14:34.147Z,9.43
2022-08-17T13:17:01.708Z,8.35
2022-08-17T13:19:40.185Z,10.48
2022-08-17T13:22:09.984Z,9.52
2022-08-17T13:24:37.793Z,10.05
2022-08-17T13:27:07.804Z,9.02
2022-08-17T13:29:37.045Z,10.85
2022-08-17T13:32:13.063Z,11.68
2022-08-17T13:35:15.085Z,13.38
2022-08-17T13:37:34.388Z,12.73
2022-08-17T13:40:09.884Z,8.60
2022-08-17T13:42:50.425Z,11.70
2022-08-17T13:45:35.307Z,13.27
2022-08-17T13:50:31.943Z,10.70
2022-08-17T13:52:58.527Z,15.30
2022-08-17T13:55:26.376Z,14.38
2022-08-17T13:58:06.552Z,14.75
2022-08-17T14:00:35.449Z,11.77
2022-08-17T14:03:03.070Z,11.15
2022-08-17T14:05:30.545Z,11.98
2022-08-17T14:08:02.542Z,13.20
2022-08-17T14:10:34.331Z,15.98
2022-08-17T14:13:00.713Z,12.48
2022-08-17T14:15:54.989Z,9.52
2022-08-17T14:18:13.450Z,12.25
2022-08-17T14:20:39.877Z,11.73
2022-08-17T14:23:08.251Z,11.05
2022-08-17T14:25:34.581Z,11.70
2022-08-17T14:28:01.444Z,10.05
2022-08-17T14:30:28.870Z,12.45
2022-08-17T14:32:57.982Z,11.00
2022-08-17T14:35:24.614Z,13.68
2022-08-17T14:37:51.707Z,12.55
2022-08-17T14:40:20.798Z,13.77
2022-08-17T14:42:48.035Z,10.57
2022-08-17T14:45:30.471Z,12.63
2022-08-17T14:47:59.546Z,12.67
2022-08-17T14:50:27.142Z,12.23
2022-08-17T14:52:56.283Z,13.02
2022-08-17T14:55:24.641Z,13.07
2022-08-17T14:57:51.186Z,12.30
2022-08-17T15:00:17.786Z,13.07
2022-08-17T15:02:46.127Z,11.13
2022-08-17T15:05:13.747Z,13.23
2022-08-17T15:07:40.473Z,12.43
2022-08-17T15:10:08.177Z,14.65
2022-08-17T15:12:34.804Z,10.18
2022-08-17T15:15:05.548Z,15.50
2022-08-17T15:17:44.782Z,10.27
2022-08-17T15:20:20.951Z,8.88
2022-08-17T15:22:54.972Z,12.50
2022-08-17T15:25:22.386Z,6.88
2022-08-17T15:27:49.030Z,8.43
2022-08-17T15:30:15.727Z,9.00
2022-08-17T15:32:51.022Z,10.43
2022-08-17T15:35:27.209Z,9.40
2022-08-17T15:37:54.953Z,10.68
2022-08-17T15:40:21.295Z,8.98
2022-08-17T15:42:47.676Z,7.85
2022-08-17T15:45:16.492Z,9.45
2022-08-17T15:47:43.278Z,9.23
2022-08-17T15:50:10.202Z,7.53
2022-08-17T15:52:40.115Z,9.77
2022-08-17T15:55:08.876Z,9.38
2022-08-17T15:57:36.028Z,7.78
2022-08-17T16:00:03.533Z,8.13
2022-08-17T16:03:45.352Z,9.38
2022-08-17T16:05:24.880Z,8.93
2022-08-17T16:07:52.063Z,8.85
2022-08-17T16:10:19.389Z,9.50
2022-08-17T16:12:46.982Z,8.35
2022-08-17T16:15:13.825Z,6.72
2022-08-17T16:17:41.467Z,8.13
2022-08-17T16:20:20.302Z,7.32
2022-08-17T16:22:48.045Z,7.88
2022-08-17T16:25:18.029Z,8.65
2022-08-17T16:27:44.633Z,8.02
2022-08-17T16:30:16.937Z,8.63
2022-08-17T16:32:43.903Z,6.65
2022-08-17T16:35:11.831Z,5.55
2022-08-17T16:37:40.253Z,7.95
2022-08-17T16:40:11.551Z,9.70
2022-08-17T16:42:39.505Z,11.10
2022-08-17T16:45:18.383Z,7.38
2022-08-17T16:47:45.352Z,11.40
2022-08-17T16:50:13.450Z,5.57
2022-08-17T16:52:40.707Z,5.90
2022-08-17T16:55:08.833Z,9.50
2022-08-17T16:57:37.350Z,6.95
2022-08-17T17:00:15.031Z,9.65
2022-08-17T17:02:43.164Z,10.38
2022-08-17T17:05:16.428Z,8.20
2022-08-17T17:08:01.025Z,11.02
2022-08-17T17:10:38.767Z,7.32
2022-08-17T17:13:08.521Z,7.65
2022-08-17T17:16:01.179Z,5.68
2022-08-17T17:18:40.778Z,6.78
2022-08-17T17:21:11.240Z,8.38
2022-08-17T17:23:45.177Z,5.82
2022-08-17T17:26:16.428Z,10.93
2022-08-17T17:28:51.842Z,7.80
2022-08-17T17:31:19.981Z,8.13
2022-08-17T17:33:49.209Z,8.50
2022-08-17T17:36:33.769Z,9.65
2022-08-17T17:39:04.133Z,10.73
2022-08-17T17:41:35.773Z,8.25
2022-08-17T17:44:07.516Z,7.32
2022-08-17T17:46:37.908Z,10.43
2022-08-17T17:49:05.882Z,9.82
2022-08-17T17:52:06.888Z,6.53
2022-08-17T17:54:18.543Z,7.55
2022-08-17T17:57:02.030Z,9.05
2022-08-17T17:59:28.357Z,4.85
2022-08-17T18:01:54.747Z,7.57
2022-08-17T18:04:21.373Z,9.82
2022-08-17T18:06:53.701Z,7.47
2022-08-17T18:09:33.954Z,8.65
2022-08-17T18:12:20.984Z,7.80
2022-08-17T18:15:03.526Z,6.15
2022-08-17T18:17:31.043Z,7.90
2022-08-17T18:19:57.371Z,9.30
2022-08-17T18:22:24.349Z,8.48
2022-08-17T18:24:56.345Z,8.30
2022-08-17T18:27:28.614Z,6.25
2022-08-17T18:29:56.498Z,7.18
2022-08-17T18:32:25.768Z,5.97
2022-08-17T18:34:57.440Z,7.88
2022-08-17T18:37:30.772Z,8.00
2022-08-17T18:39:57.272Z,11.48
2022-08-17T18:42:27.971Z,7.93
2022-08-17T18:44:55.445Z,8.38
2022-08-17T18:47:26.236Z,7.75
2022-08-17T18:49:57.438Z,6.20
2022-08-17T18:52:27.739Z,8.73
2022-08-17T18:55:00.171Z,7.50
2022-08-17T18:57:34.912Z,7.88
2022-08-17T19:00:01.895Z,6.35
2022-08-17T19:02:44.707Z,7.57
2022-08-17T19:05:24.958Z,11.80
2022-08-17T19:07:51.501Z,10.80
2022-08-17T19:10:17.989Z,12.00
2022-08-17T19:12:51.267Z,5.38
2022-08-17T19:15:22.820Z,8.82
2022-08-17T19:17:55.346Z,10.52
2022-08-17T19:20:24.041Z,12.45
2022-08-17T19:23:02.224Z,11.07
2022-08-17T19:25:30.685Z,8.02
2022-08-17T19:28:02.985Z,13.90
2022-08-17T19:30:29.970Z,8.25
2022-08-17T19:32:58.263Z,8.43
2022-08-17T19:35:26.636Z,6.72
2022-08-17T19:38:05.300Z,8.18
2022-08-17T19:40:53.639Z,8.98
2022-08-17T19:43:38.963Z,7.15
2022-08-17T19:46:15.700Z,6.68
2022-08-17T19:48:56.281Z,9.30
2022-08-17T19:51:28.747Z,6.97
2022-08-17T19:54:05.985Z,8.02
2022-08-17T19:56:48.353Z,9.52
2022-08-17T19:59:35.905Z,12.38
2022-08-17T20:02:22.988Z,6.00
2022-08-17T20:04:50.066Z,4.65
2022-08-17T20:07:23.602Z,12.88
2022-08-17T20:09:53.241Z,6.60
2022-08-17T20:12:21.076Z,7.57
2022-08-17T20:14:57.187Z,6.75
2022-08-17T20:17:31.248Z,6.88
2022-08-17T20:20:19.910Z,5.28
2022-08-17T20:22:52.693Z,6.45
2022-08-17T20:25:35.039Z,6.65
2022-08-17T20:28:06.402Z,3.13
2022-08-17T20:30:37.980Z,7.20
2022-08-17T20:33:05.527Z,4.70
2022-08-17T20:35:33.324Z,2.08
2022-08-17T20:38:11.004Z,6.72
2022-08-17T20:40:39.548Z,4.50
2022-08-17T20:43:25.119Z,1.90
2022-08-17T20:46:01.095Z,3.30
2022-08-17T20:48:37.984Z,5.03
2022-08-17T20:51:21.471Z,2.08
2022-08-17T20:53:47.775Z,5.60
2022-08-17T20:56:32.706Z,3.10
2022-08-17T20:59:00.573Z,5.32
2022-08-17T21:01:39.994Z,4.78
2022-08-17T21:04:08.098Z,8.38
2022-08-17T21:06:34.489Z,3.53
2022-08-17T21:09:12.955Z,4.38
2022-08-17T21:12:03.755Z,4.25
2022-08-17T21:14:40.812Z,5.40
2022-08-17T21:17:17.712Z,5.40
2022-08-17T21:20:15.599Z,3.10
2022-08-17T21:23:00.976Z,4.63
2022-08-17T21:25:42.946Z,4.63
2022-08-17T21:28:29.952Z,5.10
2022-08-17T21:31:09.199Z,6.68
2022-08-17T21:33:39.539Z,4.25
2022-08-17T21:36:11.938Z,2.83
2022-08-17T21:38:42.038Z,3.95
2022-08-17T21:41:18.803Z,4.80
2022-08-17T21:43:47.328Z,5.00
2022-08-17T21:46:23.265Z,6.03
2022-08-17T21:48:54.427Z,3.05
2022-08-17T21:51:23.479Z,6.63
2022-08-17T21:53:57.325Z,7.07
2022-08-17T21:56:23.633Z,5.93
2022-08-17T21:58:54.468Z,8.65
2022-08-17T22:01:25.999Z,4.72
2022-08-17T22:04:04.051Z,6.60
2022-08-17T22:06:35.088Z,3.85
2022-08-17T22:09:04.367Z,4.82
2022-08-17T22:11:31.558Z,4.68
2022-08-17T22:14:05.497Z,7.07
2022-08-17T22:16:32.534Z,14.18
2022-08-17T22:18:59.163Z,4.15
2022-08-17T22:21:26.047Z,5.88
2022-08-17T22:24:06.135Z,10.60
2022-08-17T22:26:51.274Z,9.75
2022-08-17T22:29:37.444Z,6.10
2022-08-17T22:32:03.824Z,4.90
2022-08-17T22:34:30.154Z,6.63
2022-08-17T22:37:15.169Z,6.50
2022-08-17T22:39:41.727Z,5.68
2022-08-17T22:42:13.509Z,7.15
2022-08-17T22:44:48.115Z,13.02
2022-08-17T22:47:14.434Z,5.30
2022-08-17T22:49:52.974Z,12.40
2022-08-17T22:52:55.932Z,6.40
2022-08-17T22:55:41.649Z,11.60
2022-08-17T22:58:59.062Z,8.80
2022-08-17T23:01:28.291Z,7.22
2022-08-17T23:03:56.872Z,8.25
2022-08-17T23:06:24.214Z,11.30
2022-08-17T23:08:54.997Z,6.40
2022-08-17T23:11:36.711Z,7.80
2022-08-17T23:14:13.687Z,7.47
2022-08-17T23:16:43.015Z,8.43
2022-08-17T23:19:09.998Z,9.30
2022-08-17T23:21:37.291Z,8.45
2022-08-17T23:24:08.808Z,5.93
2022-08-17T23:26:37.991Z,7.28
2022-08-17T23:29:07.238Z,9.20
2022-08-17T23:31:37.079Z,5.18
2022-08-17T23:34:05.182Z,4.90
2022-08-17T23:36:35.418Z,7.50
2022-08-17T23:39:01.768Z,6.13
2022-08-17T23:41:31.537Z,3.42
2022-08-17T23:43:58.532Z,5.22
2022-08-17T23:46:25.127Z,7.15
2022-08-17T23:48:54.949Z,4.60
2022-08-17T23:51:23.459Z,8.52
2022-08-17T23:53:50.837Z,6.47
2022-08-17T23:56:24.074Z,6.53
2022-08-17T23:58:51.471Z,3.60
